Latest Weather Observations for Shark Bay Airport

IDW60801

Issued at 7:02 am WST Saturday 5 September 2015 (issued every 30 minutes, with the page automatically refreshed every 10 minutes)

About weather observations | Map of weather stations | Latest weather observations for WA | Other Formats
Station Details ID: 006105 Name: SHARK BAY AIRPORT Lat: -25.89 Lon: 113.58 Height: 33.8 m
Data from the previous 72 hours. | See also: Recent months at Shark Bay Airport
Date/Time
WST
Temp
°C
App
Temp
°C
Dew
Point
Rel
Hum
%
Delta-T
°C
Wind Press
QNH
hPa
Press
MSL
hPa
Rain
since 9 am
mm
Dir
 
Spd
km/h
Gust
km/h
Spd
kts
Gust
kts
05/07:00am 15.7 15.6 13.9 89 1.0 SSW 7 7 4 4 1020.9 1020.9 0.0
05/06:30am 14.9 15.5 13.1 89 1.0 ENE 2 6 1 3 1020.3 1020.3 0.0
05/06:00am 14.6 15.4 12.6 88 1.1 CALM 0 0 0 0 1019.7 1019.7 0.0
05/05:30am 14.7 15.5 12.7 88 1.1 CALM 0 2 0 1 1019.3 1019.3 0.0
05/05:00am 14.9 15.8 12.8 87 1.2 CALM 0 0 0 0 1019.1 1019.1 0.0
05/04:30am 15.0 15.7 12.3 84 1.5 CALM 0 0 0 0 1019.0 1019.0 0.0
05/04:00am 15.1 14.5 12.4 84 1.5 SW 7 9 4 5 1018.9 1018.9 0.0
05/03:30am 14.7 13.7 12.2 85 1.4 WSW 9 11 5 6 1019.2 1019.2 0.0
05/03:00am 14.4 13.6 11.7 84 1.4 SW 7 9 4 5 1019.3 1019.3 0.0
05/02:30am 14.4 13.2 11.7 84 1.5 SW 9 11 5 6 1019.3 1019.3 0.0
05/02:00am 13.7 12.6 10.7 82 1.6 SW 7 9 4 5 1019.3 1019.3 0.0
05/01:30am 13.8 12.1 10.0 78 2.0 WSW 9 11 5 6 1019.6 1019.6 0.0
05/01:00am 15.3 14.1 11.7 79 1.9 SSW 9 11 5 6 1019.7 1019.7 0.0
05/12:30am 14.7 13.2 10.5 76 2.2 S 9 11 5 6 1019.8 1019.8 0.0
05/12:00am 16.0 14.4 11.6 75 2.4 SSW 11 13 6 7 1020.2 1020.2 0.0
 
Date/Time
WST
Temp
°C
App
Temp
°C
Dew
Point
Rel
Hum
%
Delta-T
°C
Wind Press
QNH
hPa
Press
MSL
hPa
Rain
since 9 am
mm
Dir
 
Spd
km/h
Gust
km/h
Spd
kts
Gust
kts
04/11:30pm 16.2 14.2 11.6 74 2.5 SSW 13 17 7 9 1020.4 1020.4 0.0
04/11:00pm 16.2 13.8 11.4 73 2.6 SSW 15 20 8 11 1020.6 1020.6 0.0
04/10:30pm 16.5 14.4 11.2 71 2.9 SSW 13 17 7 9 1020.8 1020.8 0.0
04/10:00pm 17.3 14.9 11.3 68 3.2 SSW 15 19 8 10 1020.9 1020.9 0.0
04/09:30pm 17.3 14.9 11.3 68 3.3 SSW 15 19 8 10 1020.8 1020.8 0.0
04/09:00pm 17.1 14.3 11.2 68 3.2 SSW 17 20 9 11 1020.8 1020.8 0.0
04/08:30pm 17.0 14.0 10.8 67 3.3 SSW 17 20 9 11 1020.7 1020.7 0.0
04/08:00pm 17.2 14.6 10.6 65 3.5 SW 15 19 8 10 1020.6 1020.6 0.0
04/07:30pm 17.4 14.8 10.8 65 3.5 SW 15 20 8 11 1020.0 1020.0 0.0
04/07:00pm 17.4 14.7 10.5 64 3.7 SW 15 17 8 9 1019.6 1019.6 0.0
04/06:30pm 17.6 15.5 9.8 60 4.1 SW 11 13 6 7 1019.4 1019.4 0.0
04/06:00pm 18.9 17.0 10.5 58 4.5 WSW 11 13 6 7 1019.2 1019.2 0.0
04/05:30pm 19.7 17.6 9.9 53 5.2 WSW 11 15 6 8 1018.7 1018.7 0.0
04/05:00pm 20.2 17.2 9.2 49 5.8 WSW 15 20 8 11 1018.5 1018.5 0.0
04/04:30pm 20.9 18.3 9.5 48 6.1 SW 13 17 7 9 1018.3 1018.2 0.0
04/04:00pm 21.4 18.9 9.6 47 6.3 SW 13 20 7 11 1018.0 1017.9 0.0
04/03:30pm 21.1 18.5 9.4 47 6.3 SW 13 20 7 11 1018.2 1018.1 0.0
04/03:00pm 21.4 18.0 9.3 46 6.5 WSW 17 24 9 13 1018.3 1018.2 0.0
04/02:30pm 21.5 17.6 8.7 44 6.8 SW 19 28 10 15 1018.3 1018.2 0.0
04/02:00pm 21.4 17.9 8.7 44 6.7 WSW 17 26 9 14 1018.6 1018.6 0.0
04/01:30pm 22.2 19.6 9.4 44 6.9 WSW 13 20 7 11 1018.6 1018.6 0.0
04/01:00pm 21.2 17.7 8.8 45 6.5 SW 17 26 9 14 1019.0 1019.0 0.0
04/12:30pm 20.8 18.1 9.1 47 6.2 SW 13 24 7 13 1019.1 1019.1 0.0
04/12:00pm 20.5 18.1 8.8 47 6.1 SSW 11 19 6 10 1019.4 1019.4 0.0
04/11:30am 20.4 17.3 8.7 47 6.1 SW 15 22 8 12 1019.8 1019.8 0.0
04/11:00am 20.4 17.0 9.0 48 6.0 SW 17 26 9 14 1020.1 1020.1 0.0
04/10:30am 20.4 17.4 9.3 49 5.9 SW 15 20 8 11 1020.0 1020.0 0.0
04/10:00am 19.4 16.0 9.3 52 5.3 WSW 17 24 9 13 1020.0 1020.0 0.0
04/09:30am 19.5 17.0 9.7 53 5.2 SW 13 19 7 10 1019.9 1019.9 0.0
04/09:00am 18.3 17.9 12.3 68 3.3 E 6 7 3 4 1019.9 1019.9 0.0
04/08:30am 17.1 16.7 13.0 77 2.3 E 7 11 4 6 1019.9 1019.9 0.0
04/08:00am 13.5 12.8 12.1 91 0.8 ENE 7 9 4 5 1019.8 1019.8 0.0
04/07:30am 11.5 10.3 10.2 92 0.7 ENE 7 9 4 5 1019.6 1019.6 0.0
04/07:00am 9.4 7.6 8.0 91 0.7 ENE 7 9 4 5 1019.2 1019.2 0.0
04/06:30am 7.4 5.0 5.2 86 1.0 E 7 9 4 5 1018.8 1018.8 0.0
04/06:00am 7.7 5.0 5.7 87 0.9 ENE 9 9 5 5 1018.6 1018.6 0.0
04/05:30am 8.7 6.7 7.0 89 0.8 ENE 7 9 4 5 1018.5 1018.5 0.0
04/05:00am 7.5 5.2 5.8 89 0.8 E 7 7 4 4 1018.2 1018.1 0.0
04/04:30am 9.5 7.7 7.9 90 0.8 SE 7 7 4 4 1018.0 1017.9 0.0
04/04:00am 10.2 8.2 8.8 91 0.7 SE 9 9 5 5 1017.9 1017.8 0.0
04/03:30am 9.2 7.4 7.2 87 0.9 ESE 6 7 3 4 1017.9 1017.8 0.0
04/03:00am 11.5 9.4 9.6 88 1.0 S 11 13 6 7 1018.0 1017.9 0.0
04/02:30am 11.7 9.6 9.6 87 1.1 S 11 11 6 6 1018.1 1018.0 0.0
04/02:00am 11.5 9.3 9.4 87 1.1 S 11 11 6 6 1018.0 1017.9 0.0
04/01:30am 11.5 9.3 9.2 86 1.2 S 11 11 6 6 1018.3 1018.2 0.0
04/01:00am 12.0 9.4 9.4 84 1.3 S 13 15 7 8 1018.5 1018.5 0.0
04/12:30am 12.0 9.1 8.3 78 1.8 S 13 13 7 7 1018.9 1018.9 0.0
04/12:00am 13.5 10.8 10.3 81 1.7 SSW 15 17 8 9 1019.0 1019.0 0.0
 
Date/Time
WST
Temp
°C
App
Temp
°C
Dew
Point
Rel
Hum
%
Delta-T
°C
Wind Press
QNH
hPa
Press
MSL
hPa
Rain
since 9 am
mm
Dir
 
Spd
km/h
Gust
km/h
Spd
kts
Gust
kts
03/11:30pm 13.4 11.0 10.0 80 1.8 SSW 13 17 7 9 1019.1 1019.1 0.0
03/11:00pm 13.1 10.4 9.0 76 2.1 S 13 15 7 8 1019.2 1019.2 0.0
03/10:30pm 13.8 10.9 9.6 76 2.2 SSW 15 17 8 9 1019.3 1019.3 0.0
03/10:00pm 13.4 10.6 8.7 73 2.4 S 13 15 7 8 1019.2 1019.2 0.0
03/09:30pm 14.5 11.8 8.9 69 2.8 S 13 17 7 9 1019.2 1019.2 0.0
03/09:00pm 15.2 12.1 8.9 66 3.2 SSW 15 19 8 10 1019.3 1019.3 0.0
03/08:30pm 16.1 12.6 8.8 62 3.7 SSW 17 22 9 12 1019.1 1019.1 0.0
03/08:00pm 16.3 12.9 9.0 62 3.8 SSW 17 20 9 11 1019.1 1019.1 0.0
03/07:30pm 16.6 12.7 8.6 59 4.1 SSW 19 24 10 13 1018.9 1018.9 0.0
03/07:00pm 17.1 13.7 9.3 60 4.1 SSW 17 20 9 11 1018.8 1018.8 0.0
03/06:30pm 17.6 14.2 9.2 58 4.4 SW 17 20 9 11 1018.5 1018.5 0.0
03/06:00pm 18.7 15.3 9.2 54 5.0 SW 17 24 9 13 1018.2 1018.1 0.0
03/05:30pm 19.9 15.5 8.9 49 5.8 SW 22 30 12 16 1017.9 1017.8 0.0
03/05:00pm 21.1 17.0 7.7 42 6.9 SSW 19 26 10 14 1017.8 1017.7 0.0
03/04:30pm 21.7 17.0 6.0 36 7.9 SW 20 30 11 16 1017.7 1017.6 0.0
03/04:00pm 22.9 17.9 3.4 28 9.4 SW 19 24 10 13 1017.7 1017.6 0.0
03/03:30pm 22.7 17.3 2.2 26 9.7 SW 20 26 11 14 1017.6 1017.5 0.0
03/03:00pm 23.1 17.2 -1.1 20 10.7 SSW 20 26 11 14 1017.5 1017.4 0.0
03/02:30pm 23.4 17.2 -0.1 21 10.7 SSW 22 30 12 16 1017.7 1017.6 0.0
03/02:00pm 22.9 16.6 -1.2 20 10.6 SSW 22 28 12 15 1017.6 1017.5 0.0
03/01:30pm 22.8 17.4 1.2 24 10.0 SSW 19 28 10 15 1018.0 1017.9 0.0
03/01:00pm 22.2 17.3 4.3 31 8.7 SW 19 26 10 14 1018.2 1018.1 0.0
03/12:30pm 22.4 17.3 3.0 28 9.3 SW 19 22 10 12 1018.6 1018.6 0.0
03/12:00pm 21.4 17.6 7.6 41 7.1 SW 17 20 9 11 1018.9 1018.9 0.0
03/11:30am 21.3 18.3 7.5 41 7.1 SW 13 20 7 11 1019.3 1019.3 0.0
03/11:00am 21.1 18.1 7.7 42 6.9 SW 13 19 7 10 1019.5 1019.5 0.0
03/10:30am 20.8 19.5 7.8 43 6.7 SSW 4 11 2 6 1019.8 1019.8 0.0
03/10:00am 19.1 17.1 7.2 46 6.0 S 7 9 4 5 1019.8 1019.8 0.0
03/09:30am 18.1 15.2 8.1 52 5.1 SE 13 17 7 9 1019.4 1019.4 0.0
03/09:00am 16.2 14.0 7.7 57 4.3 SSE 9 17 5 9 1019.4 1019.4 0.0
03/08:30am 13.9 11.5 7.2 64 3.3 S 9 11 5 6 1019.1 1019.1 0.0
03/08:00am 11.6 8.6 6.1 69 2.6 SSE 11 13 6 7 1018.9 1018.9 0.0
03/07:30am 9.3 6.7 6.0 80 1.5 SSE 9 11 5 6 1018.7 1018.7 0.0
03/07:00am 7.4 3.8 4.9 84 1.1 SW 13 13 7 7 1018.7 1018.7 0.0
03/06:30am 7.6 4.7 4.7 82 1.3 SW 9 11 5 6 1018.3 1018.2 0.0
03/06:00am 8.0 4.5 5.6 85 1.1 SSE 13 15 7 8 1017.9 1017.8 0.0
03/05:30am 7.9 5.5 5.4 84 1.1 S 7 9 4 5 1017.8 1017.7 0.0
03/05:00am 8.0 5.2 5.1 82 1.3 SSE 9 15 5 8 1017.6 1017.5 0.0
03/04:30am 8.3 4.8 5.4 82 1.3 SE 13 15 7 8 1017.2 1017.1 0.0
03/04:00am 8.3 4.7 5.1 80 1.4 SE 13 13 7 7 1017.2 1017.1 0.0
03/03:30am 8.7 4.7 5.1 78 1.6 SSE 15 15 8 8 1017.5 1017.4 0.0
03/03:00am 9.3 6.2 5.7 78 1.6 SSE 11 13 6 7 1017.7 1017.6 0.0
03/02:30am 10.1 7.5 6.3 77 1.8 SSE 9 11 5 6 1017.9 1017.8 0.0
03/02:00am 11.0 8.0 7.5 79 1.7 SSE 13 17 7 9 1018.2 1018.1 0.0
03/01:30am 11.5 8.6 8.2 80 1.6 SSE 13 15 7 8 1018.3 1018.2 0.0
03/01:00am 12.8 9.8 9.3 79 1.8 S 15 17 8 9 1018.9 1018.9 0.0
03/12:30am 13.4 10.5 9.8 79 1.9 S 15 19 8 10 1018.8 1018.8 0.0
03/12:00am 13.9 10.6 9.7 76 2.2 S 17 20 9 11 1019.1 1019.1 0.0
 
Date/Time
WST
Temp
°C
App
Temp
°C
Dew
Point
Rel
Hum
%
Delta-T
°C
Wind Press
QNH
hPa
Press
MSL
hPa
Rain
since 9 am
mm
Dir
 
Spd
km/h
Gust
km/h
Spd
kts
Gust
kts
02/11:30pm 14.2 10.5 9.6 74 2.4 SSW 19 24 10 13 1019.3 1019.3 0.0
02/11:00pm 14.2 10.8 9.2 72 2.5 S 17 22 9 12 1019.5 1019.5 0.0
02/10:30pm 14.5 10.7 9.1 70 2.8 S 19 24 10 13 1019.7 1019.7 0.0
02/10:00pm 14.5 10.6 8.7 68 2.9 S 19 24 10 13 1019.8 1019.8 0.0
02/09:30pm 14.6 10.4 8.3 66 3.2 S 20 28 11 15 1019.9 1019.9 0.0
02/09:00pm 14.7 10.4 8.0 64 3.3 S 20 24 11 13 1019.9 1019.9 0.0
02/08:30pm 14.7 10.3 7.3 61 3.6 S 20 26 11 14 1019.7 1019.7 0.0
02/08:00pm 14.8 10.4 6.4 57 4.1 S 19 24 10 13 1019.7 1019.7 0.0
02/07:30pm 15.5 10.4 6.2 54 4.5 SSW 22 33 12 18 1019.5 1019.5 0.0
02/07:00pm 15.7 10.9 5.6 51 4.8 SSW 20 24 11 13 1019.2 1019.2 0.0
02/06:30pm 15.5 11.1 4.8 49 5.0 SSW 17 20 9 11 1018.8 1018.8 0.0
02/06:00pm 16.8 12.2 3.5 41 6.1 SSW 17 24 9 13 1018.4 1018.4 0.0
02/05:30pm 18.1 12.3 2.4 35 7.2 S 22 32 12 17 1017.9 1017.8 0.0
02/05:00pm 19.9 14.8 0.9 28 8.5 SE 17 26 9 14 1017.8 1017.7 0.0
02/04:30pm 20.2 15.1 0.6 27 8.8 SE 17 24 9 13 1017.7 1017.6 0.0
02/04:00pm 20.4 15.5 1.8 29 8.5 S 17 24 9 13 1017.7 1017.6 0.0
02/03:30pm 19.9 15.0 2.3 31 8.1 SSW 17 30 9 16 1018.0 1017.9 0.0
02/03:00pm 19.6 13.6 3.3 34 7.7 SSW 24 32 13 17 1018.3 1018.2 0.0
02/02:30pm 19.2 12.9 3.8 36 7.3 SW 26 35 14 19 1018.8 1018.8 0.0
02/02:00pm 20.1 14.1 3.3 33 7.9 SW 24 35 13 19 1019.0 1019.0 0.0
02/01:30pm 20.2 15.5 1.1 28 8.6 SSE 15 28 8 15 1019.2 1019.2 0.0
02/01:00pm 19.4 15.0 0.4 28 8.4 S 13 20 7 11 1019.4 1019.4 0.0
02/12:30pm 19.4 15.5 0.9 29 8.3 SSE 11 17 6 9 1019.7 1019.7 0.0
02/12:00pm 18.9 14.7 1.9 32 7.7 ESE 13 22 7 12 1020.3 1020.3 0.0
02/11:30am 18.7 14.3 2.9 35 7.3 SE 15 20 8 11 1020.5 1020.5 0.0
02/11:00am 18.1 13.9 3.6 38 6.8 E 15 24 8 13 1021.0 1021.0 0.0
02/10:30am 17.3 12.4 3.9 41 6.3 E 19 26 10 14 1021.3 1021.3 0.0
02/10:00am 16.4 10.9 3.8 43 5.8 E 22 30 12 16 1021.5 1021.5 0.0
02/09:30am 15.9 9.8 2.7 41 6.0 E 24 33 13 18 1021.5 1021.5 0.0
02/09:00am 15.7 9.7 3.2 43 5.7 E 24 35 13 19 1021.5 1021.5 0.0
02/08:30am 14.8 8.4 3.0 45 5.3 E 26 37 14 20 1021.5 1021.5 0.0
02/08:00am 14.1 8.6 4.1 51 4.6 ESE 22 32 12 17 1021.5 1021.5 0.0
02/07:30am 12.7 7.6 4.2 56 3.9 ESE 20 28 11 15 1021.6 1021.6 0.0

Other Formats:

Comma delimited format used in spreadsheet applications
http://www.bom.gov.au/fwo/IDW60801/IDW60801.95402.axf

JavaScript Object Notation format (JSON) in row-major order
http://www.bom.gov.au/fwo/IDW60801/IDW60801.95402.json